Time;durP1;ratioP1;P1;durP2;ratioP2;P2;SDS_P1;SDS_P2;PMS_P1;PMS_P2;Temp;Humidity;BMP_temperature;BMP_pressure;BME280_temperature;BME280_humidity;BME280_pressure;Samples;Min_cycle;Max_cycle;Signal;HPM_P1;HPM_P2
2022/07/07 00:01:13;;;;;;;2.72;1.20;;;19.80;93.70;;;;;;7399689;19;20182;-75
2022/07/07 00:03:38;;;;;;;2.10;1.25;;;19.80;93.60;;;;;;7394449;19;20153;-80
2022/07/07 00:06:04;;;;;;;2.10;1.40;;;19.90;93.30;;;;;;7393383;19;20226;-81
2022/07/07 00:08:31;;;;;;;2.72;1.27;;;19.90;93.30;;;;;;7400488;19;20550;-76
2022/07/07 00:10:57;;;;;;;2.15;1.10;;;20.00;93.10;;;;;;7402956;19;20135;-76
2022/07/07 00:13:23;;;;;;;4.13;1.55;;;19.90;93.20;;;;;;7396903;19;20599;-80
2022/07/07 00:15:49;;;;;;;1.85;1.40;;;20.00;93.30;;;;;;7395644;19;20607;-75
2022/07/07 00:18:15;;;;;;;3.25;1.20;;;19.90;93.30;;;;;;7396373;19;20162;-76
2022/07/07 00:20:41;;;;;;;3.58;1.25;;;20.00;93.80;;;;;;7396738;19;20147;-79
2022/07/07 00:23:07;;;;;;;3.13;1.38;;;20.10;93.60;;;;;;7394604;19;20155;-75
2022/07/07 00:25:33;;;;;;;2.22;1.25;;;20.00;93.80;;;;;;7394776;19;20174;-81
2022/07/07 00:27:59;;;;;;;2.80;1.10;;;19.90;94.00;;;;;;7397804;19;20154;-82
2022/07/07 00:30:24;;;;;;;2.60;1.23;;;20.00;94.00;;;;;;7395280;19;20490;-75
2022/07/07 00:32:50;;;;;;;2.42;1.25;;;19.90;94.00;;;;;;7399264;19;20481;-75
2022/07/07 00:35:16;;;;;;;3.13;1.10;;;20.00;94.00;;;;;;7396910;19;20481;-76
2022/07/07 00:37:42;;;;;;;2.10;1.25;;;19.90;94.00;;;;;;7391231;19;20601;-75
2022/07/07 00:40:08;;;;;;;1.40;1.02;;;19.90;94.00;;;;;;7393463;19;20147;-81
2022/07/07 00:42:34;;;;;;;1.90;1.20;;;19.80;93.90;;;;;;7394891;19;20143;-76
2022/07/07 00:45:00;;;;;;;2.15;1.30;;;19.90;94.10;;;;;;7396185;19;20503;-80
2022/07/07 00:47:26;;;;;;;1.05;0.90;;;19.90;94.10;;;;;;7394301;19;20153;-80
2022/07/07 00:49:54;;;;;;;1.45;1.10;;;19.90;94.30;;;;;;7397445;19;20508;-81
2022/07/07 00:52:20;;;;;;;2.33;0.98;;;19.90;94.30;;;;;;7397046;19;20879;-82
2022/07/07 00:54:54;;;;;;;2.55;1.00;;;19.80;94.50;;;;;;7398671;19;20139;-80
2022/07/07 00:57:20;;;;;;;2.42;1.13;;;19.80;94.20;;;;;;7393402;19;20158;-79
2022/07/07 00:59:48;;;;;;;4.60;1.00;;;19.80;94.40;;;;;;7394167;19;20138;-75
2022/07/07 01:02:14;;;;;;;2.10;1.30;;;19.80;94.20;;;;;;7396002;19;20130;-81
2022/07/07 01:04:40;;;;;;;2.08;1.08;;;19.90;94.30;;;;;;7393399;19;20194;-75
2022/07/07 01:07:06;;;;;;;3.72;1.20;;;19.90;94.00;;;;;;7398011;19;20537;-78
2022/07/07 01:09:33;;;;;;;1.67;1.02;;;19.90;94.30;;;;;;7394825;19;20155;-80
2022/07/07 01:11:59;;;;;;;2.28;1.13;;;19.90;94.20;;;;;;7395048;19;20165;-80
2022/07/07 01:14:25;;;;;;;3.65;1.20;;;19.90;94.10;;;;;;7396222;19;20126;-77
2022/07/07 01:16:52;;;;;;;3.80;0.90;;;19.90;94.10;;;;;;7399261;19;20644;-74
2022/07/07 01:19:20;;;;;;;3.42;1.17;;;19.90;94.30;;;;;;7393634;19;20479;-76
2022/07/07 01:22:01;;;;;;;1.60;1.10;;;19.90;94.10;;;;;;7396390;19;20150;-75
2022/07/07 01:24:29;;;;;;;4.80;1.20;;;19.90;94.00;;;;;;7392548;19;20521;-76
2022/07/07 01:27:27;;;;;;;2.70;1.40;;;20.00;94.00;;;;;;7391633;19;20134;-74
2022/07/07 01:29:54;;;;;;;3.08;1.17;;;20.10;94.00;;;;;;7392037;19;20149;-76
2022/07/07 01:32:21;;;;;;;3.42;1.15;;;20.00;93.90;;;;;;7395353;19;20762;-81
2022/07/07 01:34:48;;;;;;;1.02;0.93;;;20.00;94.00;;;;;;7391363;19;20135;-75
2022/07/07 01:37:16;;;;;;;2.33;0.90;;;19.70;94.20;;;;;;7397123;19;20154;-75
2022/07/07 01:39:43;;;;;;;2.03;1.10;;;19.90;94.20;;;;;;7392941;19;20143;-75
2022/07/07 01:42:10;;;;;;;1.42;1.08;;;19.70;94.30;;;;;;7397132;19;20604;-80
2022/07/07 01:44:38;;;;;;;2.25;1.05;;;19.80;94.20;;;;;;7400431;19;20564;-80
2022/07/07 01:47:04;;;;;;;1.60;1.10;;;19.80;94.20;;;;;;7392853;19;20146;-74
2022/07/07 01:49:32;;;;;;;2.22;1.10;;;19.80;94.40;;;;;;7390626;19;20131;-75
2022/07/07 01:51:59;;;;;;;1.77;1.20;;;19.80;94.40;;;;;;7393916;19;20127;-75
2022/07/07 01:54:26;;;;;;;2.70;1.20;;;19.80;94.30;;;;;;7392678;19;20867;-81
2022/07/07 01:56:52;;;;;;;2.83;0.98;;;19.70;94.70;;;;;;7394727;19;20135;-76
2022/07/07 01:59:17;;;;;;;2.13;1.10;;;19.60;94.70;;;;;;7392670;19;20235;-80
2022/07/07 02:01:43;;;;;;;2.75;1.17;;;19.50;94.70;;;;;;7395544;19;20494;-81
2022/07/07 02:04:09;;;;;;;2.90;1.10;;;19.70;94.50;;;;;;7392607;19;20163;-76
2022/07/07 02:06:37;;;;;;;3.03;1.10;;;19.60;94.70;;;;;;7390765;19;20593;-80
2022/07/07 02:09:05;;;;;;;1.95;1.00;;;19.60;94.60;;;;;;7394409;19;20159;-80
2022/07/07 02:11:31;;;;;;;1.45;1.05;;;19.60;94.80;;;;;;7396467;19;20131;-79
2022/07/07 02:13:58;;;;;;;3.50;1.20;;;19.40;94.90;;;;;;7391993;19;20134;-78
2022/07/07 02:16:25;;;;;;;2.28;1.25;;;19.50;95.00;;;;;;7391251;19;20178;-75
2022/07/07 02:18:54;;;;;;;1.50;0.93;;;19.50;94.80;;;;;;7392589;19;20138;-75
2022/07/07 02:21:20;;;;;;;1.02;0.90;;;19.60;95.00;;;;;;7394015;19;20138;-80
2022/07/07 02:23:51;;;;;;;5.68;1.42;;;19.60;94.90;;;;;;7388837;19;20151;-74
2022/07/07 02:26:17;;;;;;;2.25;1.30;;;19.60;94.90;;;;;;7397652;19;20452;-79
2022/07/07 02:28:44;;;;;;;3.38;1.25;;;19.50;95.10;;;;;;7395832;19;20467;-76
2022/07/07 02:31:10;;;;;;;3.03;1.42;;;19.30;95.10;;;;;;7392979;19;20170;-76
2022/07/07 02:33:36;;;;;;;2.03;1.00;;;19.30;95.40;;;;;;7391123;19;20596;-80
2022/07/07 02:36:03;;;;;;;1.60;1.10;;;19.40;95.60;;;;;;7394473;19;20146;-80
2022/07/07 02:38:30;;;;;;;4.60;1.20;;;19.40;95.40;;;;;;7391527;19;20214;-81
2022/07/07 02:40:56;;;;;;;2.10;1.10;;;19.40;95.40;;;;;;7391986;19;20151;-78
2022/07/07 02:43:22;;;;;;;3.80;1.38;;;19.30;95.50;;;;;;7393727;19;20856;-80
2022/07/07 02:45:49;;;;;;;0.82;0.82;;;19.40;95.70;;;;;;7390003;19;20142;-77
2022/07/07 02:48:17;;;;;;;2.70;1.25;;;19.40;95.90;;;;;;7392078;19;20675;-75
2022/07/07 02:50:44;;;;;;;5.88;1.30;;;19.40;95.60;;;;;;7390177;19;20247;-76
2022/07/07 02:53:11;;;;;;;2.85;1.15;;;19.50;95.70;;;;;;7390475;19;20145;-80
2022/07/07 02:55:37;;;;;;;3.45;1.10;;;19.50;95.60;;;;;;7393043;19;20154;-75
2022/07/07 02:58:05;;;;;;;2.08;1.05;;;19.40;95.70;;;;;;7389614;19;20248;-81
2022/07/07 03:00:35;;;;;;;2.08;1.10;;;19.20;96.00;;;;;;7390850;19;20465;-74
2022/07/07 03:03:02;;;;;;;4.32;1.48;;;19.30;96.10;;;;;;7393349;19;20138;-80
2022/07/07 03:05:28;;;;;;;2.33;1.23;;;19.30;95.80;;;;;;7386768;19;20155;-75
2022/07/07 03:07:54;;;;;;;2.28;1.00;;;19.30;96.00;;;;;;7395713;19;20616;-80
2022/07/07 03:10:20;;;;;;;2.20;1.00;;;19.30;96.00;;;;;;7396025;19;20152;-79
2022/07/07 03:12:47;;;;;;;1.50;1.00;;;19.40;95.80;;;;;;7392933;19;20177;-79
2022/07/07 03:15:13;;;;;;;2.25;1.02;;;19.50;95.70;;;;;;7391922;19;20166;-76
2022/07/07 03:17:45;;;;;;;3.33;1.15;;;19.60;95.50;;;;;;7392209;19;20524;-75
2022/07/07 03:20:13;;;;;;;2.63;1.23;;;19.60;95.50;;;;;;7393869;19;20138;-77
2022/07/07 03:22:40;;;;;;;2.45;1.00;;;19.50;95.60;;;;;;7392740;19;20150;-75
2022/07/07 03:25:07;;;;;;;2.40;1.02;;;19.50;95.70;;;;;;7389450;19;20131;-81
2022/07/07 03:27:34;;;;;;;4.50;1.33;;;19.60;95.50;;;;;;7393375;19;20366;-76
2022/07/07 03:30:01;;;;;;;4.10;1.15;;;19.60;95.70;;;;;;7393467;19;20146;-82
2022/07/07 03:32:27;;;;;;;3.97;1.10;;;19.60;95.60;;;;;;7389311;19;20147;-74
2022/07/07 03:34:53;;;;;;;2.17;1.35;;;19.60;95.80;;;;;;7390857;19;20146;-75
2022/07/07 03:37:18;;;;;;;4.28;1.48;;;19.50;95.70;;;;;;7390554;19;20195;-76
2022/07/07 03:39:44;;;;;;;5.80;1.05;;;19.60;95.60;;;;;;7391541;19;20550;-79
2022/07/07 03:42:10;;;;;;;1.80;1.25;;;19.60;95.30;;;;;;7388851;19;20135;-75
2022/07/07 03:44:36;;;;;;;1.52;1.25;;;19.50;95.40;;;;;;7390900;19;20158;-74
2022/07/07 03:47:03;;;;;;;3.35;1.30;;;19.50;95.50;;;;;;7392851;19;20142;-75
2022/07/07 03:49:30;;;;;;;2.45;1.20;;;19.50;95.60;;;;;;7391807;19;20130;-81
2022/07/07 03:51:56;;;;;;;1.45;1.23;;;19.50;95.50;;;;;;7395089;19;20135;-74
2022/07/07 03:54:22;;;;;;;2.83;1.00;;;19.50;95.50;;;;;;7389986;19;20146;-76
2022/07/07 03:56:47;;;;;;;1.75;1.00;;;19.30;95.80;;;;;;7388294;19;20151;-75
2022/07/07 03:59:13;;;;;;;1.83;1.20;;;19.40;95.70;;;;;;7389450;19;20142;-76
2022/07/07 04:01:44;;;;;;;3.97;1.23;;;19.40;95.80;;;;;;7389759;19;20175;-79
2022/07/07 04:04:12;;;;;;;1.42;0.93;;;19.50;95.70;;;;;;7389029;19;20203;-75
2022/07/07 04:06:37;;;;;;;1.77;0.98;;;19.20;95.60;;;;;;7390082;19;20146;-79
2022/07/07 04:09:03;;;;;;;3.30;1.23;;;19.20;96.10;;;;;;7390691;19;20174;-78
2022/07/07 04:11:29;;;;;;;2.15;1.00;;;19.30;95.90;;;;;;7393835;19;20164;-81
2022/07/07 04:13:55;;;;;;;1.60;1.20;;;19.20;96.10;;;;;;7397635;19;20147;-76
2022/07/07 04:16:21;;;;;;;2.75;0.85;;;19.10;96.20;;;;;;7398307;19;20210;-76
2022/07/07 04:18:46;;;;;;;2.47;1.15;;;19.00;96.00;;;;;;7397706;19;20173;-76
2022/07/07 04:21:12;;;;;;;1.83;0.80;;;19.10;96.20;;;;;;7397513;19;20141;-82
2022/07/07 04:23:38;;;;;;;1.55;1.08;;;19.20;96.30;;;;;;7392737;19;20176;-80
2022/07/07 04:26:04;;;;;;;1.20;1.00;;;19.20;96.00;;;;;;7392835;19;20147;-75
2022/07/07 04:28:30;;;;;;;1.40;0.93;;;18.90;96.40;;;;;;7397361;19;20134;-76
2022/07/07 04:30:56;;;;;;;1.75;0.90;;;19.00;96.50;;;;;;7397072;19;20126;-78
2022/07/07 04:33:22;;;;;;;3.35;1.20;;;18.80;96.80;;;;;;7396241;19;20151;-74
2022/07/07 04:35:48;;;;;;;2.00;0.90;;;19.00;96.70;;;;;;7398360;19;20594;-77
2022/07/07 04:38:14;;;;;;;1.75;1.00;;;19.10;96.60;;;;;;7394450;19;20142;-80
2022/07/07 04:40:40;;;;;;;1.75;0.80;;;19.30;96.80;;;;;;7395781;19;20145;-76
2022/07/07 04:43:07;;;;;;;3.92;1.30;;;19.30;96.20;;;;;;7394964;19;20162;-76
2022/07/07 04:45:33;;;;;;;2.20;1.20;;;19.20;96.50;;;;;;7396061;19;20145;-80
2022/07/07 04:47:59;;;;;;;2.15;0.80;;;19.40;96.20;;;;;;7396177;19;20142;-80
2022/07/07 04:50:26;;;;;;;5.32;1.27;;;19.40;96.30;;;;;;7397809;19;20127;-79
2022/07/07 04:52:52;;;;;;;1.60;0.90;;;19.40;96.20;;;;;;7395538;19;20156;-75
2022/07/07 04:55:18;;;;;;;1.52;0.80;;;19.50;96.30;;;;;;7396663;19;20502;-79
2022/07/07 04:57:44;;;;;;;1.95;0.90;;;19.70;96.00;;;;;;7398272;19;20190;-81
2022/07/07 05:00:11;;;;;;;0.98;0.73;;;19.60;95.90;;;;;;7397367;19;20138;-76
2022/07/07 05:02:37;;;;;;;1.35;1.10;;;19.60;96.20;;;;;;7395582;19;20213;-78
2022/07/07 05:05:03;;;;;;;3.53;1.38;;;19.50;95.90;;;;;;7391327;19;20253;-75
2022/07/07 05:07:30;;;;;;;1.98;1.05;;;19.30;96.10;;;;;;7392146;19;20178;-76
2022/07/07 05:09:55;;;;;;;2.30;0.93;;;19.10;96.60;;;;;;7392830;19;20609;-76
2022/07/07 05:12:21;;;;;;;1.40;0.73;;;19.20;96.60;;;;;;7394889;19;20135;-79
2022/07/07 05:14:48;;;;;;;2.30;1.35;;;19.50;96.40;;;;;;7396481;19;20168;-77
2022/07/07 05:17:13;;;;;;;4.22;1.00;;;19.60;96.60;;;;;;7393539;19;20272;-75
2022/07/07 05:19:41;;;;;;;1.95;1.10;;;19.60;96.30;;;;;;7392473;19;20162;-77
2022/07/07 05:22:07;;;;;;;1.33;1.02;;;19.70;96.00;;;;;;7390233;19;20178;-74
2022/07/07 05:24:34;;;;;;;1.98;1.13;;;20.00;95.90;;;;;;7391799;19;20158;-75
2022/07/07 05:26:59;;;;;;;1.90;1.20;;;19.90;95.80;;;;;;7390092;19;20157;-75
2022/07/07 05:29:26;;;;;;;2.05;1.40;;;20.20;96.10;;;;;;7392113;19;20134;-76
2022/07/07 05:31:52;;;;;;;2.17;0.80;;;19.90;96.00;;;;;;7389843;19;20143;-76
2022/07/07 05:34:18;;;;;;;1.38;0.73;;;19.90;96.00;;;;;;7389693;19;20142;-76
2022/07/07 05:36:44;;;;;;;1.88;1.10;;;19.90;95.90;;;;;;7394160;19;20545;-75
2022/07/07 05:39:13;;;;;;;1.27;1.00;;;19.80;96.00;;;;;;7392285;19;20152;-73
2022/07/07 05:41:39;;;;;;;1.95;0.90;;;19.60;96.10;;;;;;7391708;19;20139;-73
2022/07/07 05:44:05;;;;;;;3.55;0.90;;;19.60;96.10;;;;;;7392297;19;20198;-76
2022/07/07 05:46:31;;;;;;;4.78;1.30;;;19.70;96.30;;;;;;7389366;19;20640;-74
2022/07/07 05:48:57;;;;;;;1.38;1.17;;;19.80;96.10;;;;;;7390030;19;20150;-73
2022/07/07 05:51:23;;;;;;;3.05;1.00;;;19.90;96.00;;;;;;7391821;19;21994;-74
2022/07/07 05:53:49;;;;;;;1.38;0.90;;;19.70;96.40;;;;;;7393640;19;20138;-75
2022/07/07 05:56:15;;;;;;;5.20;2.55;;;19.70;96.40;;;;;;7393411;19;20198;-72
2022/07/07 05:58:40;;;;;;;3.30;1.27;;;19.90;96.10;;;;;;7396239;19;20134;-76
2022/07/07 06:01:07;;;;;;;5.13;2.08;;;19.80;96.10;;;;;;7386946;19;20158;-75
2022/07/07 06:03:32;;;;;;;3.97;1.58;;;19.80;96.40;;;;;;7398457;19;20294;-74
2022/07/07 06:05:58;;;;;;;2.65;1.48;;;19.80;96.30;;;;;;7389009;19;20170;-74
2022/07/07 06:08:25;;;;;;;7.15;1.40;;;19.90;96.10;;;;;;7391766;19;20135;-75
2022/07/07 06:10:52;;;;;;;7.40;3.92;;;19.90;96.20;;;;;;7388865;19;20147;-75
2022/07/07 06:13:18;;;;;;;1.95;1.33;;;20.10;96.30;;;;;;7391369;19;20151;-75
2022/07/07 06:15:43;;;;;;;6.90;4.43;;;20.20;96.20;;;;;;7392364;19;20241;-75
2022/07/07 06:18:09;;;;;;;4.40;1.60;;;20.50;95.90;;;;;;7390660;19;20496;-75
2022/07/07 06:20:35;;;;;;;2.35;1.35;;;20.70;95.20;;;;;;7387271;19;20134;-75
2022/07/07 06:23:01;;;;;;;2.40;1.20;;;21.10;94.30;;;;;;7388472;19;20161;-75
2022/07/07 06:25:27;;;;;;;7.40;1.50;;;21.40;93.70;;;;;;7392572;19;20135;-75
2022/07/07 06:27:53;;;;;;;4.07;1.65;;;21.70;93.40;;;;;;7387474;19;20172;-75
2022/07/07 06:30:19;;;;;;;11.82;6.10;;;22.40;92.60;;;;;;7389118;19;20173;-75
2022/07/07 06:32:45;;;;;;;3.95;2.20;;;22.70;92.60;;;;;;7388750;19;20628;-74
2022/07/07 06:35:10;;;;;;;2.47;1.50;;;23.30;91.60;;;;;;7389312;19;20606;-75
2022/07/07 06:37:37;;;;;;;2.22;1.42;;;23.80;91.00;;;;;;7386989;19;20667;-74
2022/07/07 06:40:03;;;;;;;2.38;1.15;;;23.90;91.30;;;;;;7391078;19;20131;-74
2022/07/07 06:42:29;;;;;;;4.25;1.83;;;24.60;90.00;;;;;;7390760;19;20135;-75
2022/07/07 06:44:55;;;;;;;2.33;1.70;;;24.90;89.30;;;;;;7387196;19;20150;-75
2022/07/07 06:47:21;;;;;;;4.85;2.40;;;24.80;89.20;;;;;;7390936;19;20131;-75
2022/07/07 06:49:46;;;;;;;3.78;1.40;;;24.50;89.60;;;;;;7387998;19;20244;-74
2022/07/07 06:52:12;;;;;;;4.00;1.67;;;24.10;90.20;;;;;;7387681;19;20159;-74
2022/07/07 06:54:39;;;;;;;1.88;1.10;;;23.40;90.90;;;;;;7389393;19;20138;-75
2022/07/07 06:57:06;;;;;;;2.47;1.38;;;22.80;91.40;;;;;;7381726;19;20138;-74
2022/07/07 06:59:33;;;;;;;2.78;1.45;;;22.50;92.00;;;;;;7387244;19;20147;-74
2022/07/07 07:01:59;;;;;;;1.83;1.15;;;22.00;92.50;;;;;;7385523;19;20134;-75
2022/07/07 07:04:26;;;;;;;2.15;1.20;;;22.10;92.90;;;;;;7385123;19;20199;-75
2022/07/07 07:06:52;;;;;;;4.15;2.30;;;22.20;92.70;;;;;;7391880;19;20159;-76
2022/07/07 07:09:18;;;;;;;4.07;1.80;;;22.90;92.20;;;;;;7388347;19;20494;-77
2022/07/07 07:11:45;;;;;;;3.90;1.40;;;23.50;91.30;;;;;;7388068;19;20142;-77
2022/07/07 07:14:11;;;;;;;1.38;1.02;;;23.20;91.30;;;;;;7389859;19;20259;-74
2022/07/07 07:16:39;;;;;;;2.08;1.40;;;23.10;91.50;;;;;;7390363;19;20118;-79
2022/07/07 07:19:05;;;;;;;6.65;3.67;;;22.90;91.90;;;;;;7390432;19;20206;-72
2022/07/07 07:21:32;;;;;;;3.78;2.20;;;22.80;92.20;;;;;;7388348;19;20598;-74
2022/07/07 07:23:58;;;;;;;1.50;1.17;;;22.60;92.30;;;;;;7388858;19;20158;-76
2022/07/07 07:26:24;;;;;;;3.90;2.90;;;22.60;92.50;;;;;;7388935;19;20616;-77
2022/07/07 07:28:50;;;;;;;4.10;1.70;;;22.40;92.80;;;;;;7392646;19;20139;-77
2022/07/07 07:31:16;;;;;;;3.33;1.50;;;22.40;92.80;;;;;;7389571;19;20139;-76
2022/07/07 07:33:42;;;;;;;4.50;2.67;;;22.50;92.80;;;;;;7388537;19;20138;-78
2022/07/07 07:36:09;;;;;;;8.30;5.03;;;22.40;92.90;;;;;;7388636;19;20143;-74
2022/07/07 07:38:39;;;;;;;5.18;4.15;;;22.20;93.30;;;;;;7388100;19;20139;-77
2022/07/07 07:41:11;;;;;;;3.97;1.50;;;22.10;93.50;;;;;;7388967;19;20151;-75
2022/07/07 07:43:37;;;;;;;3.47;1.20;;;21.90;94.00;;;;;;7385995;19;20134;-75
2022/07/07 07:46:03;;;;;;;2.97;1.27;;;22.30;93.40;;;;;;7389712;19;20510;-74
2022/07/07 07:48:29;;;;;;;2.15;1.35;;;22.50;93.30;;;;;;7398772;19;20729;-75
2022/07/07 07:50:55;;;;;;;2.47;1.10;;;22.60;93.40;;;;;;7395543;19;20187;-76
2022/07/07 07:53:21;;;;;;;1.77;1.27;;;22.60;93.20;;;;;;7401207;19;20155;-75
2022/07/07 07:55:47;;;;;;;3.55;1.08;;;22.60;93.20;;;;;;7399337;19;20135;-78
2022/07/07 07:58:13;;;;;;;6.88;4.80;;;22.60;93.10;;;;;;7393053;19;20191;-75
2022/07/07 08:00:38;;;;;;;3.50;2.25;;;22.30;93.60;;;;;;7393313;19;20147;-76
2022/07/07 08:03:04;;;;;;;3.15;1.17;;;22.00;94.30;;;;;;7391684;19;20154;-76
2022/07/07 08:05:30;;;;;;;2.15;1.40;;;22.10;94.20;;;;;;7392006;19;20147;-75
2022/07/07 08:07:57;;;;;;;9.63;2.30;;;22.00;94.20;;;;;;7398294;19;20889;-76
2022/07/07 08:10:23;;;;;;;3.95;1.40;;;21.80;94.60;;;;;;7395898;19;20896;-73
2022/07/07 08:12:49;;;;;;;2.55;1.33;;;21.70;94.80;;;;;;7398313;19;20198;-73
2022/07/07 08:15:15;;;;;;;2.00;1.02;;;21.70;94.80;;;;;;7397144;19;20254;-75
2022/07/07 08:17:42;;;;;;;3.42;1.20;;;21.60;95.00;;;;;;7397346;19;20138;-74
2022/07/07 08:20:09;;;;;;;1.85;1.27;;;21.70;94.90;;;;;;7400453;19;20617;-73
2022/07/07 08:22:35;;;;;;;1.38;1.00;;;21.60;95.10;;;;;;7393342;19;20526;-76
2022/07/07 08:25:01;;;;;;;3.47;1.48;;;21.60;95.00;;;;;;7400391;19;20135;-73
2022/07/07 08:27:27;;;;;;;2.67;1.48;;;21.60;95.20;;;;;;7396509;19;20166;-76
2022/07/07 08:29:52;;;;;;;3.17;1.65;;;21.60;95.60;;;;;;7394419;19;20168;-74
2022/07/07 08:32:19;;;;;;;3.28;1.73;;;21.50;95.80;;;;;;7397466;19;20131;-74
2022/07/07 08:34:44;;;;;;;4.20;2.60;;;21.50;95.90;;;;;;7398826;19;20143;-75
2022/07/07 08:37:11;;;;;;;4.70;2.38;;;21.40;96.20;;;;;;7401965;19;20138;-78
2022/07/07 08:39:38;;;;;;;4.90;1.98;;;21.60;96.10;;;;;;7399462;19;20138;-75
2022/07/07 08:42:04;;;;;;;1.48;1.20;;;21.70;96.10;;;;;;7395477;19;20131;-73
2022/07/07 08:44:30;;;;;;;3.95;2.05;;;21.70;96.10;;;;;;7390247;19;20225;-75
2022/07/07 08:46:56;;;;;;;3.38;1.50;;;21.70;96.10;;;;;;7392147;19;20164;-76
2022/07/07 08:49:22;;;;;;;2.72;1.55;;;21.80;95.90;;;;;;7391284;19;20134;-77
2022/07/07 08:51:48;;;;;;;4.72;2.47;;;21.80;96.10;;;;;;7393831;19;20147;-77
2022/07/07 08:54:15;;;;;;;2.50;2.10;;;21.70;96.50;;;;;;7392441;19;20143;-75
2022/07/07 08:56:42;;;;;;;3.00;1.67;;;21.60;96.80;;;;;;7391048;19;20150;-76
2022/07/07 08:59:09;;;;;;;3.53;1.48;;;21.90;96.70;;;;;;7395210;19;20169;-77
2022/07/07 09:01:36;;;;;;;3.55;1.83;;;22.10;96.50;;;;;;7394261;19;20391;-76
2022/07/07 09:04:03;;;;;;;3.95;1.65;;;22.50;96.10;;;;;;7395842;19;20151;-75
2022/07/07 09:06:29;;;;;;;2.35;1.50;;;22.70;96.30;;;;;;7393553;19;20494;-76
2022/07/07 09:08:56;;;;;;;2.05;1.48;;;22.60;96.40;;;;;;7394169;19;20154;-73
2022/07/07 09:11:25;;;;;;;1.67;1.25;;;22.90;96.60;;;;;;7396793;19;20641;-74
2022/07/07 09:13:52;;;;;;;3.03;1.50;;;23.30;96.00;;;;;;7392764;19;20135;-76
2022/07/07 09:16:18;;;;;;;3.58;1.67;;;23.80;95.70;;;;;;7395549;19;20210;-74
2022/07/07 09:18:45;;;;;;;5.50;1.90;;;24.20;95.20;;;;;;7394600;19;20135;-77
2022/07/07 09:21:31;;;;;;;3.60;2.17;;;23.80;95.00;;;;;;7395936;19;20210;-73
2022/07/07 09:24:01;;;;;;;6.30;2.50;;;23.50;95.50;;;;;;7395539;19;20151;-76
2022/07/07 09:26:41;;;;;;;4.53;1.88;;;23.20;95.80;;;;;;7398247;19;20135;-76
2022/07/07 09:29:17;;;;;;;3.63;1.23;;;23.20;96.00;;;;;;7394941;19;20201;-76
2022/07/07 09:32:09;;;;;;;1.17;1.00;;;23.00;96.70;;;;;;7405749;19;20130;-76
2022/07/07 09:34:37;;;;;;;1.90;1.20;;;22.70;97.40;;;;;;7395765;19;20251;-76
2022/07/07 09:39:51;;;;;;;5.03;1.23;;;22.30;98.70;;;;;;7393177;19;20147;-76
2022/07/07 09:42:31;;;;;;;3.53;0.93;;;21.80;99.80;;;;;;7390057;19;20173;-76
2022/07/07 09:45:00;;;;;;;1.80;0.98;;;21.90;99.90;;;;;;7384083;19;20589;-77
2022/07/07 09:47:27;;;;;;;4.18;1.67;;;22.00;99.90;;;;;;7395166;19;20628;-76
2022/07/07 09:50:06;;;;;;;3.75;1.25;;;22.00;99.90;;;;;;7394470;19;20161;-73
2022/07/07 09:52:34;;;;;;;2.78;1.20;;;22.00;99.90;;;;;;7387324;19;20228;-74
2022/07/07 09:55:03;;;;;;;3.20;1.10;;;21.70;99.90;;;;;;7395350;19;20134;-74
2022/07/07 09:57:29;;;;;;;1.35;1.25;;;21.70;99.90;;;;;;7392296;19;20154;-73
2022/07/07 09:59:55;;;;;;;1.27;1.17;;;21.80;99.90;;;;;;7393611;19;20609;-72
2022/07/07 10:02:25;;;;;;;3.05;1.55;;;21.80;99.90;;;;;;7391891;19;20141;-74
2022/07/07 10:04:56;;;;;;;1.90;1.50;;;21.70;99.90;;;;;;7391186;19;20527;-73
2022/07/07 10:07:24;;;;;;;1.65;1.30;;;21.60;99.90;;;;;;7388815;19;20164;-74
2022/07/07 10:10:02;;;;;;;2.05;1.08;;;21.60;99.90;;;;;;7388469;19;20142;-74
2022/07/07 10:12:28;;;;;;;3.10;1.52;;;21.70;99.90;;;;;;7391007;19;20134;-74
2022/07/07 10:14:59;;;;;;;4.80;1.65;;;21.50;99.90;;;;;;7391973;19;20142;-72
2022/07/07 10:17:28;;;;;;;4.07;1.95;;;21.70;99.90;;;;;;7392237;19;20133;-76
2022/07/07 10:19:55;;;;;;;1.88;1.60;;;21.80;99.90;;;;;;7391813;19;20143;-72
2022/07/07 10:22:26;;;;;;;2.33;1.40;;;22.00;99.90;;;;;;7385653;19;20262;-74
2022/07/07 10:27:22;;;;;;;2.92;2.13;;;22.00;99.90;;;;;;7379300;19;20487;-72
2022/07/07 10:29:50;;;;;;;2.65;1.73;;;22.00;99.90;;;;;;7388707;19;20198;-73
2022/07/07 10:32:19;;;;;;;4.20;1.40;;;22.10;99.90;;;;;;7386418;19;20174;-72
2022/07/07 10:34:50;;;;;;;3.88;1.40;;;22.30;99.90;;;;;;7387819;19;20139;-71
2022/07/07 10:37:17;;;;;;;4.28;1.63;;;22.30;99.90;;;;;;7387889;19;20238;-72
2022/07/07 10:39:48;;;;;;;3.05;2.17;;;22.10;99.90;;;;;;7389563;19;20146;-71
2022/07/07 10:42:49;;;;;;;2.30;1.30;;;22.10;99.90;;;;;;7388793;19;20425;-72
2022/07/07 10:45:16;;;;;;;3.13;1.45;;;22.20;99.90;;;;;;7389338;19;20159;-72
2022/07/07 10:47:42;;;;;;;5.97;2.60;;;22.20;99.90;;;;;;7391739;19;20492;-72
2022/07/07 10:50:30;;;;;;;9.00;2.00;;;22.30;99.90;;;;;;7389265;19;20150;-73
2022/07/07 10:52:57;;;;;;;5.25;2.97;;;22.50;99.90;;;;;;7389534;19;20206;-74
2022/07/07 10:55:53;;;;;;;1.67;1.35;;;22.40;99.90;;;;;;7388621;19;20161;-74
2022/07/07 10:58:55;;;;;;;2.75;1.30;;;22.30;99.90;;;;;;7390790;19;20157;-74
2022/07/07 11:01:26;;;;;;;1.88;1.15;;;22.40;99.90;;;;;;7387870;19;20155;-74
2022/07/07 11:03:52;;;;;;;1.77;1.30;;;22.50;99.90;;;;;;7388730;19;20513;-72
2022/07/07 11:06:18;;;;;;;2.80;1.20;;;22.50;99.90;;;;;;7386864;19;20957;-72
2022/07/07 11:08:59;;;;;;;1.10;1.00;;;22.30;99.90;;;;;;7387622;19;20134;-73
2022/07/07 11:11:25;;;;;;;2.20;1.00;;;22.10;99.90;;;;;;7391643;19;20157;-72
2022/07/07 11:14:09;;;;;;;3.17;1.10;;;21.90;99.90;;;;;;7389730;19;20647;-73
2022/07/07 11:16:36;;;;;;;2.75;1.15;;;21.70;99.90;;;;;;7387945;19;20226;-73
2022/07/07 11:19:04;;;;;;;2.50;1.20;;;21.80;99.90;;;;;;7388844;19;20153;-73
2022/07/07 11:21:35;;;;;;;3.20;1.23;;;21.80;99.90;;;;;;7391293;19;20159;-72
2022/07/07 11:24:02;;;;;;;1.42;1.33;;;21.90;99.90;;;;;;7395937;19;20241;-73
2022/07/07 11:26:28;;;;;;;3.03;1.30;;;22.00;99.90;;;;;;7392093;19;20189;-74
2022/07/07 11:28:56;;;;;;;2.22;1.10;;;22.20;99.90;;;;;;7393459;19;20139;-73
2022/07/07 11:31:23;;;;;;;1.23;1.00;;;22.30;99.90;;;;;;7397736;19;20160;-74
2022/07/07 11:33:54;;;;;;;3.20;1.20;;;22.30;99.90;;;;;;7396394;19;20214;-72
2022/07/07 11:36:23;;;;;;;2.63;1.40;;;22.10;99.90;;;;;;7395262;19;20167;-74
2022/07/07 11:38:56;;;;;;;1.27;1.13;;;22.00;99.90;;;;;;7398719;19;20134;-74
2022/07/07 11:41:40;;;;;;;3.25;1.40;;;22.10;99.90;;;;;;7395288;19;20143;-76
2022/07/07 11:44:06;;;;;;;2.42;1.42;;;22.20;99.90;;;;;;7394292;19;20402;-74
2022/07/07 11:46:32;;;;;;;1.90;1.20;;;22.30;99.90;;;;;;7393684;19;20176;-73
2022/07/07 11:48:58;;;;;;;1.20;1.00;;;22.20;99.90;;;;;;7395430;19;20154;-73
2022/07/07 11:51:29;;;;;;;3.70;1.23;;;22.20;99.90;;;;;;7394630;19;20155;-72
2022/07/07 11:53:58;;;;;;;2.80;2.08;;;22.10;99.90;;;;;;7395198;19;20143;-72
2022/07/07 11:56:32;;;;;;;2.25;1.08;;;21.90;99.90;;;;;;7395698;19;20210;-73
2022/07/07 11:59:00;;;;;;;1.42;1.10;;;21.70;99.90;;;;;;7396967;19;20139;-72
2022/07/07 12:01:35;;;;;;;5.43;1.30;;;21.80;99.90;;;;;;7395122;19;20158;-73
2022/07/07 12:04:13;;;;;;;2.22;1.40;;;22.00;99.90;;;;;;7394084;19;20165;-72
2022/07/07 12:06:39;;;;;;;1.35;1.20;;;22.00;99.90;;;;;;7392798;19;20608;-71
2022/07/07 12:09:05;;;;;;;2.95;1.30;;;22.00;99.90;;;;;;7392598;19;20391;-74
2022/07/07 12:11:36;;;;;;;3.80;1.50;;;22.00;99.90;;;;;;7393947;19;20619;-73
2022/07/07 12:14:02;;;;;;;3.35;1.67;;;22.00;99.90;;;;;;7395954;19;20614;-73
2022/07/07 12:16:49;;;;;;;3.15;1.13;;;22.10;99.90;;;;;;7393607;19;20146;-74
2022/07/07 12:19:16;;;;;;;2.20;1.13;;;22.20;99.90;;;;;;7394863;19;20637;-72
2022/07/07 12:21:47;;;;;;;3.35;1.30;;;22.20;99.90;;;;;;7392503;19;20154;-73
2022/07/07 12:24:20;;;;;;;3.60;1.35;;;22.40;99.90;;;;;;7394638;19;20943;-73
2022/07/07 12:26:49;;;;;;;2.92;1.35;;;22.40;99.90;;;;;;7390800;19;20199;-73
2022/07/07 12:29:19;;;;;;;6.07;1.70;;;22.50;99.90;;;;;;7395726;19;20658;-72
2022/07/07 12:31:47;;;;;;;1.83;1.30;;;22.60;99.90;;;;;;7393342;19;20164;-74
2022/07/07 12:34:15;;;;;;;3.97;1.40;;;22.40;99.90;;;;;;7395304;19;20138;-74
2022/07/07 12:36:42;;;;;;;2.60;1.45;;;22.40;99.90;;;;;;7391935;19;20150;-73
2022/07/07 12:39:08;;;;;;;4.38;1.38;;;22.40;99.90;;;;;;7393915;19;20151;-73
2022/07/07 12:41:39;;;;;;;2.00;1.02;;;22.30;99.90;;;;;;7394531;19;20195;-72
2022/07/07 12:44:29;;;;;;;4.57;1.20;;;22.30;99.90;;;;;;7396306;19;20190;-72
2022/07/07 12:46:56;;;;;;;2.35;1.65;;;22.20;99.90;;;;;;7394026;19;20139;-74
2022/07/07 12:49:23;;;;;;;3.70;1.98;;;22.50;99.90;;;;;;7393820;19;20223;-73
2022/07/07 12:51:53;;;;;;;5.10;1.58;;;22.60;99.90;;;;;;7394159;19;20139;-72
2022/07/07 12:54:30;;;;;;;2.03;1.42;;;22.50;99.90;;;;;;7395624;19;20142;-73
2022/07/07 12:57:02;;;;;;;2.38;1.48;;;22.30;99.90;;;;;;7394883;19;20142;-74